Wednesday, June 20, 2018, 11:01 AM EDT
Back to Local

KNEL, Lakehurst Naval Air Station

Location: Lakehurst, NJ, United States Lat: 40.033
Local Time: 11:01 AM EDT (15:01 GMT) Lon: -74.317
Time Zone: US/Eastern Elev: 101 ft

Show me the last for .
Show Decoded

2018-06-19 22:55 METAR KNEL 200255Z 00000KT 7SM CLR 23/16 A2979 RMK AO2A SLPNO WND DATA ESMT
                 ALSTG ESTMD T02310163 $ =
2018-06-19 21:55 METAR KNEL 200155Z 00000KT 7SM CLR 24/17 A2979 RMK AO2A SLPNO WND DATA ESTMD
                 ALSTG ESTMD T02390170 $ =
2018-06-19 20:55 METAR KNEL 200055Z 00000KT 7SM CLR 25/16 A2977 RMK AO2A SLPNO WND DATA ESTMD
                 ALSTG ESTMD T02470164 $ =
2018-06-19 19:55 METAR KNEL 192355Z 18003KT 7SM CLR 27/17 A2975 RMK AO2A SLPNO WND DATA ESTMD
                 ALSTG ESTMD T02700172 $ =
2018-06-19 18:55 METAR KNEL 192255Z 30003KT 7SM FEW050 30/15 A2975 RMK AO2A SLPNO WND DATA ESTMD
                 ALSTG ESTMD T02990149 $ =
2018-06-19 17:55 METAR KNEL 192155Z 30004KT 7SM FEW050 32/15 A2973 RMK AO2A SLPNO WND DATA ESTMD
                 ALSTG ESTMD T03160148 $ =
2018-06-19 16:55 METAR KNEL 192055Z 30003KT 7SM FEW050 33/15 A2973 RMK AO2A SLPNO WND DATA ESTMD
                 ALSTG ESTMD T03290145 $ =
2018-06-19 15:55 METAR KNEL 191955Z 30005KT 7SM FEW050 32/16 A2972 RMK AO2A SLPNO WND DATA ESTMD
                 ALSTG ESTMD T03150157 $ =

Support USWX by starting your Amazon purchase here.